createdAt,value
2023-01-26T00:01:19.718Z,37.57
2023-01-26T00:03:46.876Z,38.30
2023-01-26T00:06:16.379Z,39.80
2023-01-26T00:08:44.630Z,38.83
2023-01-26T00:11:13.966Z,40.77
2023-01-26T00:13:41.051Z,39.43
2023-01-26T00:16:13.577Z,41.10
2023-01-26T00:18:40.831Z,39.47
2023-01-26T00:21:13.971Z,40.40
2023-01-26T00:23:40.585Z,40.47
2023-01-26T00:26:08.689Z,42.90
2023-01-26T00:28:35.240Z,43.13
2023-01-26T00:31:06.658Z,46.73
2023-01-26T00:33:33.677Z,39.93
2023-01-26T00:36:00.442Z,42.10
2023-01-26T00:38:27.396Z,40.40
2023-01-26T00:40:53.991Z,41.57
2023-01-26T00:43:20.602Z,44.07
2023-01-26T00:45:47.717Z,41.77
2023-01-26T00:48:14.317Z,41.70
2023-01-26T00:50:40.868Z,42.00
2023-01-26T00:53:07.347Z,41.37
2023-01-26T00:55:33.867Z,42.03
2023-01-26T00:58:01.606Z,38.87
2023-01-26T01:00:28.427Z,39.40
2023-01-26T01:02:56.860Z,37.77
2023-01-26T01:05:24.667Z,34.97
2023-01-26T01:07:51.585Z,34.37
2023-01-26T01:10:18.451Z,33.90
2023-01-26T01:12:45.418Z,34.70
2023-01-26T01:15:12.146Z,31.20
2023-01-26T01:17:38.823Z,34.00
2023-01-26T01:20:06.763Z,32.80
2023-01-26T01:22:34.212Z,35.90
2023-01-26T01:25:00.687Z,33.40
2023-01-26T01:27:27.246Z,33.20
2023-01-26T01:29:54.173Z,35.03
2023-01-26T01:32:21.059Z,33.00
2023-01-26T01:34:48.058Z,34.43
2023-01-26T01:37:15.145Z,33.77
2023-01-26T01:39:41.671Z,32.63
2023-01-26T01:42:08.448Z,34.00
2023-01-26T01:44:36.581Z,32.40
2023-01-26T01:47:05.623Z,33.00
2023-01-26T01:49:36.814Z,33.10
2023-01-26T01:52:18.327Z,34.33
2023-01-26T01:54:51.082Z,37.47
2023-01-26T01:57:28.542Z,34.90
2023-01-26T01:59:59.943Z,34.20
2023-01-26T02:02:26.649Z,31.00
2023-01-26T02:04:54.400Z,33.03
2023-01-26T02:07:21.425Z,34.10
2023-01-26T02:10:06.483Z,34.90
2023-01-26T02:12:33.863Z,33.43
2023-01-26T02:15:01.453Z,35.33
2023-01-26T02:17:27.974Z,35.57
2023-01-26T02:20:16.276Z,33.97
2023-01-26T02:22:52.343Z,34.27
2023-01-26T02:25:40.539Z,31.40
2023-01-26T02:28:07.054Z,33.03
2023-01-26T02:30:33.716Z,34.13
2023-01-26T02:33:00.370Z,35.80
2023-01-26T02:35:26.857Z,32.87
2023-01-26T02:37:53.656Z,36.57
2023-01-26T02:40:38.507Z,34.60
2023-01-26T02:43:05.222Z,33.37
2023-01-26T02:45:32.973Z,32.10
2023-01-26T02:48:04.548Z,34.10
2023-01-26T02:50:31.187Z,30.37
2023-01-26T02:52:57.744Z,32.60
2023-01-26T02:55:28.670Z,30.40
2023-01-26T02:57:56.948Z,30.60
2023-01-26T03:00:28.914Z,30.20
2023-01-26T03:02:57.261Z,31.17
2023-01-26T03:05:23.926Z,32.47
2023-01-26T03:07:50.630Z,30.03
2023-01-26T03:10:18.205Z,33.47
2023-01-26T03:12:45.587Z,33.13
2023-01-26T03:15:31.423Z,30.47
2023-01-26T03:18:24.061Z,32.23
2023-01-26T03:21:09.151Z,29.67
2023-01-26T03:23:54.137Z,32.60
2023-01-26T03:26:39.263Z,31.07
2023-01-26T03:29:05.765Z,28.37
2023-01-26T03:31:32.476Z,29.07
2023-01-26T03:33:58.993Z,31.10
2023-01-26T03:36:25.545Z,30.47
2023-01-26T03:38:51.982Z,33.90
2023-01-26T03:41:37.644Z,29.50
2023-01-26T03:44:22.762Z,30.47
2023-01-26T03:47:07.512Z,30.80
2023-01-26T03:49:52.461Z,30.67
2023-01-26T03:52:37.228Z,29.43
2023-01-26T03:55:22.360Z,32.73
2023-01-26T03:57:49.003Z,32.93
2023-01-26T04:00:15.934Z,32.90
2023-01-26T04:03:00.959Z,31.90
2023-01-26T04:05:45.804Z,32.50
2023-01-26T04:08:24.471Z,32.53
2023-01-26T04:10:54.320Z,34.67
2023-01-26T04:13:41.022Z,31.07
2023-01-26T04:16:27.955Z,32.23
2023-01-26T04:19:13.674Z,32.63
2023-01-26T04:21:40.351Z,34.17
2023-01-26T04:24:16.733Z,31.57
2023-01-26T04:26:43.945Z,33.43
2023-01-26T04:29:12.634Z,32.50
2023-01-26T04:31:40.120Z,33.80
2023-01-26T04:34:10.469Z,33.07
2023-01-26T04:36:36.968Z,35.47
2023-01-26T04:39:03.917Z,33.50
2023-01-26T04:41:31.503Z,35.60
2023-01-26T04:43:58.707Z,35.97
2023-01-26T04:46:25.670Z,34.23
2023-01-26T04:48:52.619Z,35.10
2023-01-26T04:51:20.671Z,34.33
2023-01-26T04:53:48.347Z,33.83
2023-01-26T04:56:20.567Z,34.57
2023-01-26T04:58:47.034Z,34.77
2023-01-26T05:01:13.616Z,33.43
2023-01-26T05:03:40.694Z,35.03
2023-01-26T05:06:07.255Z,33.03
2023-01-26T05:08:33.924Z,34.50
2023-01-26T05:11:00.401Z,34.67
2023-01-26T05:13:26.891Z,33.70
2023-01-26T05:15:53.384Z,35.60
2023-01-26T05:18:19.858Z,33.83
2023-01-26T05:20:46.867Z,31.77
2023-01-26T05:23:13.385Z,34.50
2023-01-26T05:25:39.959Z,31.33
2023-01-26T05:28:06.451Z,35.77
2023-01-26T05:30:33.015Z,32.37
2023-01-26T05:33:04.652Z,32.20
2023-01-26T05:35:31.289Z,33.27
2023-01-26T05:37:57.972Z,33.77
2023-01-26T05:40:26.038Z,34.10
2023-01-26T05:42:53.792Z,32.87
2023-01-26T05:45:20.845Z,31.10
2023-01-26T05:47:48.609Z,33.90
2023-01-26T05:50:16.242Z,33.73
2023-01-26T05:52:44.087Z,32.00
2023-01-26T05:55:10.559Z,34.20
2023-01-26T05:57:37.167Z,35.27
2023-01-26T06:00:07.222Z,33.70
2023-01-26T06:02:33.795Z,38.60
2023-01-26T06:05:00.326Z,39.07
2023-01-26T06:07:26.938Z,35.80
2023-01-26T06:09:53.486Z,37.97
2023-01-26T06:12:21.038Z,39.00
2023-01-26T06:14:47.718Z,37.80
2023-01-26T06:17:15.696Z,37.30
2023-01-26T06:19:42.291Z,37.57
2023-01-26T06:22:10.119Z,38.10
2023-01-26T06:24:36.909Z,40.63
2023-01-26T06:27:06.893Z,37.00
2023-01-26T06:29:33.935Z,37.40
2023-01-26T06:32:00.715Z,39.50
2023-01-26T06:34:27.239Z,40.00
2023-01-26T06:36:53.937Z,39.80
2023-01-26T06:39:20.614Z,39.93
2023-01-26T06:41:47.060Z,36.30
2023-01-26T06:44:13.571Z,38.33
2023-01-26T06:46:40.134Z,37.00
2023-01-26T06:49:06.717Z,36.80
2023-01-26T06:51:39.368Z,38.80
2023-01-26T06:54:05.827Z,35.80
2023-01-26T06:56:32.486Z,36.57
2023-01-26T06:58:58.995Z,34.37
2023-01-26T07:01:26.501Z,34.87
2023-01-26T07:03:55.013Z,34.80
2023-01-26T07:06:25.330Z,33.50
2023-01-26T07:08:51.861Z,35.50
2023-01-26T07:11:20.069Z,36.03
2023-01-26T07:13:46.626Z,33.37
2023-01-26T07:16:15.363Z,32.30
2023-01-26T07:18:42.142Z,31.80
2023-01-26T07:21:13.611Z,37.40
2023-01-26T07:23:40.600Z,33.67
2023-01-26T07:26:07.411Z,33.90
2023-01-26T07:28:39.231Z,35.67
2023-01-26T07:31:07.127Z,34.70
2023-01-26T07:33:34.874Z,35.27
2023-01-26T07:36:01.733Z,34.83
2023-01-26T07:38:29.150Z,36.53
2023-01-26T07:40:56.355Z,32.67
2023-01-26T07:43:23.058Z,32.63
2023-01-26T07:45:51.734Z,36.30
2023-01-26T07:48:23.284Z,32.10
2023-01-26T07:50:50.883Z,33.70
2023-01-26T07:53:22.889Z,34.43
2023-01-26T07:55:49.960Z,34.40
2023-01-26T07:58:18.512Z,36.00
2023-01-26T08:00:47.192Z,34.73
2023-01-26T08:03:14.080Z,32.50
2023-01-26T08:05:40.617Z,32.07
2023-01-26T08:08:07.253Z,32.37
2023-01-26T08:10:33.951Z,33.00
2023-01-26T08:13:01.060Z,31.43
2023-01-26T08:15:28.501Z,33.40
2023-01-26T08:17:55.217Z,32.97
2023-01-26T08:20:22.052Z,32.47
2023-01-26T08:22:48.764Z,33.00
2023-01-26T08:25:15.463Z,32.33
2023-01-26T08:27:42.002Z,29.97
2023-01-26T08:30:09.384Z,33.23
2023-01-26T08:32:36.139Z,31.80
2023-01-26T08:35:02.756Z,36.40
2023-01-26T08:37:29.451Z,31.90
2023-01-26T08:39:55.985Z,33.00
2023-01-26T08:42:22.925Z,31.77
2023-01-26T08:44:49.514Z,33.23
2023-01-26T08:47:15.951Z,29.80
2023-01-26T08:49:42.469Z,31.20
2023-01-26T08:52:09.157Z,32.10
2023-01-26T08:54:35.798Z,32.20
2023-01-26T08:57:02.325Z,32.20
2023-01-26T08:59:28.846Z,29.77
2023-01-26T09:01:55.855Z,34.40
2023-01-26T09:04:22.530Z,29.53
2023-01-26T09:06:49.041Z,29.60
2023-01-26T09:09:15.802Z,31.20
2023-01-26T09:11:42.337Z,28.17
2023-01-26T09:14:08.983Z,29.80
2023-01-26T09:16:35.595Z,31.33
2023-01-26T09:19:02.392Z,30.63
2023-01-26T09:21:29.151Z,29.30
2023-01-26T09:23:57.282Z,29.60
2023-01-26T09:26:24.173Z,29.33
2023-01-26T09:28:52.527Z,29.27
2023-01-26T09:31:19.316Z,29.73
2023-01-26T09:33:46.235Z,28.70
2023-01-26T09:36:13.161Z,27.30
2023-01-26T09:38:40.271Z,28.03
2023-01-26T09:41:27.993Z,28.13
2023-01-26T09:43:59.796Z,27.67
2023-01-26T09:46:40.826Z,28.73
2023-01-26T09:49:30.889Z,31.00
2023-01-26T09:52:06.521Z,28.93
2023-01-26T09:54:33.012Z,33.00
2023-01-26T09:57:12.279Z,31.30
2023-01-26T09:59:59.379Z,31.47
2023-01-26T10:02:35.103Z,32.10
2023-01-26T10:05:07.344Z,34.20
2023-01-26T10:07:33.893Z,29.13
2023-01-26T10:10:00.668Z,31.53
2023-01-26T10:12:35.603Z,29.57
2023-01-26T10:15:10.746Z,30.23
2023-01-26T10:17:40.474Z,32.70
2023-01-26T10:20:10.202Z,30.10
2023-01-26T10:22:49.070Z,30.33
2023-01-26T10:25:18.667Z,31.93
2023-01-26T10:27:45.989Z,30.77
2023-01-26T10:30:14.436Z,31.27
2023-01-26T10:32:42.920Z,30.67
2023-01-26T10:35:24.166Z,28.23
2023-01-26T10:37:54.554Z,28.77
2023-01-26T10:40:21.717Z,28.23
2023-01-26T10:42:57.465Z,28.17
2023-01-26T10:45:27.297Z,27.17
2023-01-26T10:48:16.226Z,29.30
2023-01-26T10:50:42.816Z,29.67
2023-01-26T10:53:16.529Z,27.43
2023-01-26T10:55:43.052Z,27.33
2023-01-26T10:58:43.999Z,28.60
2023-01-26T11:01:12.450Z,27.60
2023-01-26T11:03:39.563Z,25.77
2023-01-26T11:06:08.394Z,27.87
2023-01-26T11:08:36.731Z,31.00
2023-01-26T11:11:04.764Z,31.20
2023-01-26T11:13:31.299Z,32.17
2023-01-26T11:16:20.666Z,33.77
2023-01-26T11:18:56.214Z,30.00
2023-01-26T11:21:36.934Z,30.70
2023-01-26T11:24:13.758Z,30.27
2023-01-26T11:26:54.704Z,31.50
2023-01-26T11:29:34.251Z,28.27
2023-01-26T11:32:20.068Z,30.90
2023-01-26T11:34:53.761Z,31.70
2023-01-26T11:37:29.190Z,33.10
2023-01-26T11:39:58.710Z,33.83
2023-01-26T11:43:08.923Z,34.63
2023-01-26T11:45:51.321Z,34.00
2023-01-26T11:48:57.192Z,33.07
2023-01-26T11:51:30.607Z,32.73
2023-01-26T11:54:24.923Z,30.90
2023-01-26T11:57:10.398Z,32.97
2023-01-26T11:59:41.201Z,30.97
2023-01-26T12:02:30.887Z,30.67
2023-01-26T12:05:03.290Z,32.63
2023-01-26T12:07:51.415Z,29.53
2023-01-26T12:10:21.499Z,27.97
2023-01-26T12:12:51.628Z,28.63
2023-01-26T12:15:29.788Z,27.00
2023-01-26T12:18:12.584Z,28.00
2023-01-26T12:21:06.127Z,28.40
2023-01-26T12:23:48.718Z,26.13
2023-01-26T12:26:18.273Z,23.90
2023-01-26T12:29:09.497Z,22.97
2023-01-26T12:31:45.631Z,19.87
2023-01-26T12:34:13.184Z,20.07
2023-01-26T12:36:59.142Z,21.43
2023-01-26T12:39:39.685Z,20.80
2023-01-26T12:42:31.635Z,19.83
2023-01-26T12:45:01.818Z,20.20
2023-01-26T12:47:41.865Z,20.07
2023-01-26T12:50:13.690Z,18.80
2023-01-26T12:52:55.291Z,20.40
2023-01-26T12:55:23.754Z,22.43
2023-01-26T12:58:06.180Z,20.60
2023-01-26T13:00:34.871Z,18.90
2023-01-26T13:03:05.669Z,19.20
2023-01-26T13:05:36.053Z,18.73
2023-01-26T13:08:47.113Z,18.93
2023-01-26T13:11:42.765Z,18.30
2023-01-26T13:14:30.621Z,20.97
2023-01-26T13:16:58.561Z,20.27
2023-01-26T13:19:43.557Z,23.47
2023-01-26T13:22:40.913Z,20.90
2023-01-26T13:25:36.873Z,22.93
2023-01-26T13:28:12.892Z,22.13
2023-01-26T13:30:44.614Z,22.70
2023-01-26T13:33:21.896Z,22.60
2023-01-26T13:35:50.759Z,22.60
2023-01-26T13:38:40.222Z,19.73
2023-01-26T13:41:20.709Z,21.13
2023-01-26T13:43:53.307Z,20.67
2023-01-26T13:46:28.310Z,17.50
2023-01-26T13:48:55.883Z,19.27
2023-01-26T13:51:26.387Z,19.60
2023-01-26T13:54:12.527Z,17.30
2023-01-26T13:56:43.920Z,20.23
2023-01-26T13:59:12.531Z,19.60
2023-01-26T14:01:53.635Z,20.90
2023-01-26T14:04:24.351Z,20.33
2023-01-26T14:06:58.731Z,20.63
2023-01-26T14:09:30.483Z,17.90
2023-01-26T14:12:05.103Z,16.90
2023-01-26T14:14:37.032Z,17.50
2023-01-26T14:17:10.830Z,15.10
2023-01-26T14:19:40.553Z,19.17
2023-01-26T14:22:13.505Z,17.07
2023-01-26T14:24:41.354Z,16.40
2023-01-26T14:27:35.121Z,16.47
2023-01-26T14:30:02.661Z,14.57
2023-01-26T14:32:29.891Z,15.43
2023-01-26T14:35:00.684Z,15.07
2023-01-26T14:37:28.330Z,18.00
2023-01-26T14:40:20.338Z,15.80
2023-01-26T14:42:48.716Z,14.53
2023-01-26T14:45:15.401Z,15.63
2023-01-26T14:47:42.916Z,14.87
2023-01-26T14:50:22.324Z,15.30
2023-01-26T14:52:49.165Z,14.60
2023-01-26T14:55:28.083Z,14.27
2023-01-26T14:57:55.614Z,15.40
2023-01-26T15:00:31.359Z,16.70
2023-01-26T15:02:59.142Z,14.50
2023-01-26T15:05:36.831Z,13.80
2023-01-26T15:08:19.245Z,15.20
2023-01-26T15:11:16.032Z,15.23
2023-01-26T15:13:45.136Z,14.17
2023-01-26T15:16:18.192Z,14.87
2023-01-26T15:18:45.153Z,16.20
2023-01-26T15:21:14.530Z,17.00
2023-01-26T15:23:43.231Z,15.30
2023-01-26T15:26:28.616Z,17.47
2023-01-26T15:28:57.114Z,15.47
2023-01-26T15:31:28.476Z,16.50
2023-01-26T15:33:56.097Z,14.70
2023-01-26T15:36:25.651Z,15.83
2023-01-26T15:38:58.706Z,15.97
2023-01-26T15:41:25.474Z,16.07
2023-01-26T15:43:51.987Z,16.60
2023-01-26T15:46:18.541Z,17.50
2023-01-26T15:48:45.035Z,15.90
2023-01-26T15:51:14.958Z,17.27
2023-01-26T15:53:41.847Z,17.37
2023-01-26T15:56:13.397Z,17.23
2023-01-26T15:58:40.658Z,17.70
2023-01-26T16:01:09.969Z,16.73
2023-01-26T16:03:36.500Z,17.17
2023-01-26T16:06:03.248Z,19.07
2023-01-26T16:08:29.722Z,17.37
2023-01-26T16:10:56.874Z,15.07
2023-01-26T16:13:23.494Z,19.90
2023-01-26T16:15:52.307Z,16.90
2023-01-26T16:18:19.403Z,15.53
2023-01-26T16:20:47.745Z,17.43
2023-01-26T16:23:24.181Z,17.77
2023-01-26T16:25:51.336Z,18.33
2023-01-26T16:28:19.253Z,16.67
2023-01-26T16:30:47.145Z,15.70
2023-01-26T16:33:16.383Z,17.67
2023-01-26T16:35:43.702Z,17.60
2023-01-26T16:38:13.174Z,18.50
2023-01-26T16:40:40.733Z,18.73
2023-01-26T16:43:17.177Z,17.07
2023-01-26T16:45:43.784Z,19.67
2023-01-26T16:48:14.934Z,17.17
2023-01-26T16:50:42.897Z,17.23
2023-01-26T16:53:26.159Z,22.13
2023-01-26T16:55:52.926Z,17.87
2023-01-26T16:58:20.105Z,18.03
2023-01-26T17:00:47.530Z,22.40
2023-01-26T17:03:14.468Z,20.20
2023-01-26T17:05:41.274Z,20.70
2023-01-26T17:08:08.058Z,20.57
2023-01-26T17:10:34.675Z,17.93
2023-01-26T17:13:01.652Z,18.17
2023-01-26T17:15:29.246Z,19.87
2023-01-26T17:17:56.312Z,19.77
2023-01-26T17:20:23.182Z,20.10
2023-01-26T17:22:50.067Z,22.97
2023-01-26T17:25:18.130Z,19.97
2023-01-26T17:27:46.383Z,25.37
2023-01-26T17:30:13.258Z,21.70
2023-01-26T17:32:41.883Z,20.67
2023-01-26T17:35:08.710Z,28.33
2023-01-26T17:37:35.706Z,24.70
2023-01-26T17:40:02.190Z,23.20
2023-01-26T17:42:30.091Z,26.03
2023-01-26T17:44:57.841Z,20.73
2023-01-26T17:47:27.585Z,24.60
2023-01-26T17:49:54.043Z,25.23
2023-01-26T17:52:20.506Z,19.20
2023-01-26T17:54:49.113Z,20.20
2023-01-26T17:57:15.720Z,18.73
2023-01-26T17:59:42.266Z,22.13
2023-01-26T18:02:11.897Z,21.20
2023-01-26T18:04:38.379Z,22.60
2023-01-26T18:07:05.059Z,23.03
2023-01-26T18:09:32.025Z,21.00
2023-01-26T18:11:58.539Z,23.40
2023-01-26T18:14:25.035Z,25.20
2023-01-26T18:16:51.563Z,28.10
2023-01-26T18:19:18.917Z,22.37
2023-01-26T18:21:45.460Z,25.13
2023-01-26T18:24:12.034Z,23.63
2023-01-26T18:26:38.767Z,28.97
2023-01-26T18:29:06.133Z,24.97
2023-01-26T18:31:36.820Z,32.57
2023-01-26T18:34:04.109Z,33.10
2023-01-26T18:36:31.205Z,47.97
2023-01-26T18:39:00.236Z,35.83
2023-01-26T18:41:28.291Z,33.63
2023-01-26T18:43:55.415Z,36.60
2023-01-26T18:46:22.696Z,26.47
2023-01-26T18:48:49.251Z,42.80
2023-01-26T18:51:15.824Z,49.10
2023-01-26T18:53:42.394Z,40.87
2023-01-26T18:56:11.110Z,38.53
2023-01-26T18:58:39.027Z,36.87
2023-01-26T19:01:09.767Z,32.70
2023-01-26T19:03:37.364Z,36.80
2023-01-26T19:06:07.324Z,40.07
2023-01-26T19:08:37.343Z,31.30
2023-01-26T19:11:05.924Z,45.40
2023-01-26T19:13:32.487Z,42.23
2023-01-26T19:15:59.004Z,39.50
2023-01-26T19:18:25.735Z,36.87
2023-01-26T19:20:59.306Z,48.97
2023-01-26T19:23:26.354Z,45.97
2023-01-26T19:25:53.211Z,39.17
2023-01-26T19:28:20.037Z,41.50
2023-01-26T19:30:47.264Z,34.00
2023-01-26T19:33:27.927Z,33.40
2023-01-26T19:35:56.187Z,31.93
2023-01-26T19:38:23.544Z,33.23
2023-01-26T19:40:51.780Z,34.97
2023-01-26T19:43:19.161Z,30.90
2023-01-26T19:45:50.554Z,34.20
2023-01-26T19:48:17.121Z,34.60
2023-01-26T19:50:43.897Z,36.20
2023-01-26T19:53:10.937Z,35.07
2023-01-26T19:55:37.748Z,33.60
2023-01-26T19:58:04.320Z,38.13
2023-01-26T20:00:30.948Z,35.23
2023-01-26T20:02:57.516Z,36.13
2023-01-26T20:05:24.041Z,31.37
2023-01-26T20:07:50.720Z,33.63
2023-01-26T20:10:17.517Z,35.20
2023-01-26T20:12:44.482Z,37.00
2023-01-26T20:15:11.475Z,33.40
2023-01-26T20:17:38.227Z,38.70
2023-01-26T20:20:05.365Z,35.73
2023-01-26T20:22:34.228Z,34.67
2023-01-26T20:25:01.088Z,32.07
2023-01-26T20:27:29.243Z,32.30
2023-01-26T20:29:56.120Z,39.53
2023-01-26T20:32:22.795Z,33.87
2023-01-26T20:34:49.465Z,37.23
2023-01-26T20:37:16.247Z,35.83
2023-01-26T20:39:44.982Z,30.13
2023-01-26T20:42:16.505Z,34.10
2023-01-26T20:44:43.554Z,36.40
2023-01-26T20:47:10.182Z,39.07
2023-01-26T20:49:37.359Z,40.73
2023-01-26T20:52:08.367Z,40.53
2023-01-26T20:54:35.635Z,36.23
2023-01-26T20:57:02.658Z,38.73
2023-01-26T20:59:30.374Z,37.57
2023-01-26T21:01:57.219Z,39.13
2023-01-26T21:04:23.816Z,40.60
2023-01-26T21:06:50.533Z,40.37
2023-01-26T21:09:17.190Z,47.27
2023-01-26T21:11:43.733Z,46.30
2023-01-26T21:14:12.113Z,44.17
2023-01-26T21:16:38.659Z,47.17
2023-01-26T21:19:05.363Z,42.93
2023-01-26T21:21:32.077Z,42.13
2023-01-26T21:23:58.753Z,41.67
2023-01-26T21:26:27.655Z,39.47
2023-01-26T21:28:56.801Z,41.30
2023-01-26T21:31:25.430Z,40.10
2023-01-26T21:33:52.703Z,36.87
2023-01-26T21:36:24.340Z,45.10
2023-01-26T21:38:52.234Z,46.60
2023-01-26T21:41:39.866Z,45.87
2023-01-26T21:44:53.503Z,45.30
2023-01-26T21:47:20.080Z,42.97
2023-01-26T21:49:47.684Z,45.17
2023-01-26T21:52:32.828Z,42.00
2023-01-26T21:54:59.310Z,43.97
2023-01-26T21:57:44.635Z,48.10
2023-01-26T22:00:11.925Z,41.77
2023-01-26T22:02:38.802Z,46.30
2023-01-26T22:05:05.640Z,46.93
2023-01-26T22:07:32.191Z,45.30
2023-01-26T22:09:58.752Z,37.70
2023-01-26T22:12:25.266Z,41.63
2023-01-26T22:14:52.332Z,39.57
2023-01-26T22:17:18.805Z,42.03
2023-01-26T22:19:45.300Z,33.90
2023-01-26T22:22:12.555Z,32.20
2023-01-26T22:24:39.052Z,31.37
2023-01-26T22:27:08.147Z,29.47
2023-01-26T22:29:34.778Z,30.10
2023-01-26T22:32:02.582Z,28.33
2023-01-26T22:34:29.131Z,30.17
2023-01-26T22:36:55.609Z,29.87
2023-01-26T22:39:22.168Z,29.40
2023-01-26T22:41:48.718Z,26.63
2023-01-26T22:44:15.261Z,24.77
2023-01-26T22:46:41.753Z,24.40
2023-01-26T22:49:09.819Z,22.20
2023-01-26T22:51:37.537Z,23.00
2023-01-26T22:54:04.966Z,22.60
2023-01-26T22:56:31.591Z,24.20
2023-01-26T22:59:00.489Z,22.87
2023-01-26T23:01:32.138Z,20.77
2023-01-26T23:03:59.322Z,21.47
2023-01-26T23:06:27.299Z,18.83
2023-01-26T23:08:54.506Z,17.87
2023-01-26T23:11:26.901Z,16.90
2023-01-26T23:13:54.936Z,15.77
2023-01-26T23:16:23.550Z,15.93
2023-01-26T23:18:54.604Z,12.87
2023-01-26T23:21:21.208Z,13.97
2023-01-26T23:23:47.724Z,15.10
2023-01-26T23:26:14.253Z,13.13
2023-01-26T23:28:42.336Z,13.20
2023-01-26T23:31:10.015Z,11.73
2023-01-26T23:33:37.275Z,12.53
2023-01-26T23:36:04.867Z,10.77
2023-01-26T23:38:31.954Z,10.97
2023-01-26T23:41:00.413Z,11.87
2023-01-26T23:43:27.425Z,11.03
2023-01-26T23:45:56.273Z,11.50
2023-01-26T23:48:23.363Z,10.00
2023-01-26T23:51:10.108Z,10.37
2023-01-26T23:53:37.184Z,10.80
2023-01-26T23:56:07.382Z,10.83
2023-01-26T23:58:34.087Z,8.70
